sensor_id;sensor_type;location;lat;lon;timestamp;P1;durP1;ratioP1;P2;durP2;ratioP2
2486;SDS011;1254;49.144;8.212;2023-04-03T00:01:19;4.10;;;3.90;;
2486;SDS011;1254;49.144;8.212;2023-04-03T00:03:48;4.20;;;3.80;;
2486;SDS011;1254;49.144;8.212;2023-04-03T00:06:17;3.03;;;2.88;;
2486;SDS011;1254;49.144;8.212;2023-04-03T00:08:46;4.30;;;3.90;;
2486;SDS011;1254;49.144;8.212;2023-04-03T00:11:14;3.65;;;3.50;;
2486;SDS011;1254;49.144;8.212;2023-04-03T00:13:43;3.88;;;3.58;;
2486;SDS011;1254;49.144;8.212;2023-04-03T00:16:12;4.00;;;3.80;;
2486;SDS011;1254;49.144;8.212;2023-04-03T00:18:44;4.22;;;3.40;;
2486;SDS011;1254;49.144;8.212;2023-04-03T00:21:19;3.78;;;3.13;;
2486;SDS011;1254;49.144;8.212;2023-04-03T00:23:47;3.90;;;3.42;;
2486;SDS011;1254;49.144;8.212;2023-04-03T00:26:16;4.97;;;4.50;;
2486;SDS011;1254;49.144;8.212;2023-04-03T00:28:46;4.18;;;3.83;;
2486;SDS011;1254;49.144;8.212;2023-04-03T00:31:18;3.72;;;3.50;;
2486;SDS011;1254;49.144;8.212;2023-04-03T00:33:47;3.97;;;3.33;;
2486;SDS011;1254;49.144;8.212;2023-04-03T00:36:17;4.25;;;3.80;;
2486;SDS011;1254;49.144;8.212;2023-04-03T00:38:46;3.80;;;3.58;;
2486;SDS011;1254;49.144;8.212;2023-04-03T00:41:14;5.50;;;3.60;;
2486;SDS011;1254;49.144;8.212;2023-04-03T00:43:42;3.50;;;3.10;;
2486;SDS011;1254;49.144;8.212;2023-04-03T00:46:11;4.43;;;4.07;;
2486;SDS011;1254;49.144;8.212;2023-04-03T00:48:42;4.00;;;3.65;;
2486;SDS011;1254;49.144;8.212;2023-04-03T00:51:12;3.25;;;3.00;;
2486;SDS011;1254;49.144;8.212;2023-04-03T00:53:43;3.47;;;3.28;;
2486;SDS011;1254;49.144;8.212;2023-04-03T00:56:13;2.90;;;2.80;;
2486;SDS011;1254;49.144;8.212;2023-04-03T00:58:43;3.28;;;2.90;;
2486;SDS011;1254;49.144;8.212;2023-04-03T01:01:14;3.67;;;3.47;;
2486;SDS011;1254;49.144;8.212;2023-04-03T01:03:45;4.65;;;4.10;;
2486;SDS011;1254;49.144;8.212;2023-04-03T01:06:14;3.22;;;2.92;;
2486;SDS011;1254;49.144;8.212;2023-04-03T01:08:46;3.63;;;3.30;;
2486;SDS011;1254;49.144;8.212;2023-04-03T01:11:16;3.47;;;3.22;;
2486;SDS011;1254;49.144;8.212;2023-04-03T01:13:45;3.33;;;3.03;;
2486;SDS011;1254;49.144;8.212;2023-04-03T01:16:13;3.15;;;2.95;;
2486;SDS011;1254;49.144;8.212;2023-04-03T01:18:41;3.90;;;3.58;;
2486;SDS011;1254;49.144;8.212;2023-04-03T01:24:10;3.10;;;2.90;;
2486;SDS011;1254;49.144;8.212;2023-04-03T01:26:40;3.35;;;3.13;;
2486;SDS011;1254;49.144;8.212;2023-04-03T01:29:08;5.22;;;3.20;;
2486;SDS011;1254;49.144;8.212;2023-04-03T01:31:46;3.67;;;3.35;;
2486;SDS011;1254;49.144;8.212;2023-04-03T01:34:14;2.53;;;2.42;;
2486;SDS011;1254;49.144;8.212;2023-04-03T01:36:42;3.30;;;3.00;;
2486;SDS011;1254;49.144;8.212;2023-04-03T01:39:10;3.45;;;3.15;;
2486;SDS011;1254;49.144;8.212;2023-04-03T01:41:38;3.33;;;3.13;;
2486;SDS011;1254;49.144;8.212;2023-04-03T01:44:29;3.30;;;2.78;;
2486;SDS011;1254;49.144;8.212;2023-04-03T01:46:59;6.38;;;2.72;;
2486;SDS011;1254;49.144;8.212;2023-04-03T01:49:28;3.20;;;2.78;;
2486;SDS011;1254;49.144;8.212;2023-04-03T01:51:56;4.20;;;2.90;;
2486;SDS011;1254;49.144;8.212;2023-04-03T01:54:24;3.67;;;3.35;;
2486;SDS011;1254;49.144;8.212;2023-04-03T01:56:53;4.63;;;2.92;;
2486;SDS011;1254;49.144;8.212;2023-04-03T01:59:22;2.38;;;2.28;;
2486;SDS011;1254;49.144;8.212;2023-04-03T02:01:51;3.03;;;2.83;;
2486;SDS011;1254;49.144;8.212;2023-04-03T02:04:20;3.65;;;2.60;;
2486;SDS011;1254;49.144;8.212;2023-04-03T02:06:49;3.10;;;2.80;;
2486;SDS011;1254;49.144;8.212;2023-04-03T02:09:17;6.00;;;4.60;;
2486;SDS011;1254;49.144;8.212;2023-04-03T02:11:45;3.10;;;2.90;;
2486;SDS011;1254;49.144;8.212;2023-04-03T02:14:14;2.97;;;2.78;;
2486;SDS011;1254;49.144;8.212;2023-04-03T02:16:42;2.97;;;2.80;;
2486;SDS011;1254;49.144;8.212;2023-04-03T02:19:10;3.40;;;3.10;;
2486;SDS011;1254;49.144;8.212;2023-04-03T02:21:40;2.83;;;2.63;;
2486;SDS011;1254;49.144;8.212;2023-04-03T02:24:08;4.50;;;2.60;;
2486;SDS011;1254;49.144;8.212;2023-04-03T02:26:36;2.72;;;2.63;;
2486;SDS011;1254;49.144;8.212;2023-04-03T02:29:05;2.80;;;2.60;;
2486;SDS011;1254;49.144;8.212;2023-04-03T02:31:35;3.80;;;2.65;;
2486;SDS011;1254;49.144;8.212;2023-04-03T02:34:04;4.18;;;2.92;;
2486;SDS011;1254;49.144;8.212;2023-04-03T02:36:34;2.60;;;2.40;;
2486;SDS011;1254;49.144;8.212;2023-04-03T02:39:07;4.85;;;3.10;;
2486;SDS011;1254;49.144;8.212;2023-04-03T02:41:36;3.30;;;2.78;;
2486;SDS011;1254;49.144;8.212;2023-04-03T02:44:10;3.00;;;2.80;;
2486;SDS011;1254;49.144;8.212;2023-04-03T02:46:39;3.00;;;2.90;;
2486;SDS011;1254;49.144;8.212;2023-04-03T02:49:07;7.55;;;3.03;;
2486;SDS011;1254;49.144;8.212;2023-04-03T02:51:35;2.72;;;2.53;;
2486;SDS011;1254;49.144;8.212;2023-04-03T02:54:04;3.13;;;2.92;;
2486;SDS011;1254;49.144;8.212;2023-04-03T02:56:35;4.32;;;2.63;;
2486;SDS011;1254;49.144;8.212;2023-04-03T02:59:04;9.60;;;3.30;;
2486;SDS011;1254;49.144;8.212;2023-04-03T03:01:35;5.43;;;3.17;;
2486;SDS011;1254;49.144;8.212;2023-04-03T03:04:03;6.60;;;3.00;;
2486;SDS011;1254;49.144;8.212;2023-04-03T03:06:31;2.75;;;2.55;;
2486;SDS011;1254;49.144;8.212;2023-04-03T03:08:59;2.70;;;2.47;;
2486;SDS011;1254;49.144;8.212;2023-04-03T03:11:28;2.97;;;2.78;;
2486;SDS011;1254;49.144;8.212;2023-04-03T03:14:00;3.00;;;2.90;;
2486;SDS011;1254;49.144;8.212;2023-04-03T03:16:31;3.25;;;3.05;;
2486;SDS011;1254;49.144;8.212;2023-04-03T03:18:59;2.92;;;2.53;;
2486;SDS011;1254;49.144;8.212;2023-04-03T03:21:28;2.97;;;2.78;;
2486;SDS011;1254;49.144;8.212;2023-04-03T03:23:56;4.20;;;2.78;;
2486;SDS011;1254;49.144;8.212;2023-04-03T03:26:24;3.70;;;2.90;;
2486;SDS011;1254;49.144;8.212;2023-04-03T03:28:52;5.97;;;2.40;;
2486;SDS011;1254;49.144;8.212;2023-04-03T03:31:22;4.93;;;2.72;;
2486;SDS011;1254;49.144;8.212;2023-04-03T03:33:50;4.05;;;2.95;;
2486;SDS011;1254;49.144;8.212;2023-04-03T03:36:18;3.35;;;2.67;;
2486;SDS011;1254;49.144;8.212;2023-04-03T03:38:47;2.78;;;2.67;;
2486;SDS011;1254;49.144;8.212;2023-04-03T03:41:15;2.92;;;2.72;;
2486;SDS011;1254;49.144;8.212;2023-04-03T03:43:44;2.72;;;2.55;;
2486;SDS011;1254;49.144;8.212;2023-04-03T03:46:14;2.90;;;2.70;;
2486;SDS011;1254;49.144;8.212;2023-04-03T03:48:45;3.08;;;2.88;;
2486;SDS011;1254;49.144;8.212;2023-04-03T03:51:13;4.63;;;3.00;;
2486;SDS011;1254;49.144;8.212;2023-04-03T03:53:42;3.70;;;2.95;;
2486;SDS011;1254;49.144;8.212;2023-04-03T03:56:14;3.08;;;2.70;;
2486;SDS011;1254;49.144;8.212;2023-04-03T03:58:44;3.40;;;3.10;;
2486;SDS011;1254;49.144;8.212;2023-04-03T04:01:13;3.85;;;2.80;;
2486;SDS011;1254;49.144;8.212;2023-04-03T04:03:48;5.95;;;3.30;;
2486;SDS011;1254;49.144;8.212;2023-04-03T04:06:20;4.85;;;2.78;;
2486;SDS011;1254;49.144;8.212;2023-04-03T04:08:48;3.70;;;3.40;;
2486;SDS011;1254;49.144;8.212;2023-04-03T04:11:17;3.53;;;3.20;;
2486;SDS011;1254;49.144;8.212;2023-04-03T04:13:47;7.93;;;3.65;;
2486;SDS011;1254;49.144;8.212;2023-04-03T04:16:17;6.07;;;3.95;;
2486;SDS011;1254;49.144;8.212;2023-04-03T04:18:45;3.38;;;2.80;;
2486;SDS011;1254;49.144;8.212;2023-04-03T04:21:15;6.50;;;3.45;;
2486;SDS011;1254;49.144;8.212;2023-04-03T04:23:45;2.53;;;2.33;;
2486;SDS011;1254;49.144;8.212;2023-04-03T04:26:14;3.97;;;2.95;;
2486;SDS011;1254;49.144;8.212;2023-04-03T04:28:43;4.32;;;3.28;;
2486;SDS011;1254;49.144;8.212;2023-04-03T04:31:11;3.75;;;3.03;;
2486;SDS011;1254;49.144;8.212;2023-04-03T04:33:39;3.28;;;3.05;;
2486;SDS011;1254;49.144;8.212;2023-04-03T04:36:10;3.58;;;2.90;;
2486;SDS011;1254;49.144;8.212;2023-04-03T04:38:43;3.80;;;3.08;;
2486;SDS011;1254;49.144;8.212;2023-04-03T04:41:12;4.38;;;3.97;;
2486;SDS011;1254;49.144;8.212;2023-04-03T04:43:40;3.60;;;3.30;;
2486;SDS011;1254;49.144;8.212;2023-04-03T04:46:10;3.03;;;2.70;;
2486;SDS011;1254;49.144;8.212;2023-04-03T04:48:43;8.05;;;3.70;;
2486;SDS011;1254;49.144;8.212;2023-04-03T04:51:12;3.75;;;3.20;;
2486;SDS011;1254;49.144;8.212;2023-04-03T04:53:42;2.33;;;2.22;;
2486;SDS011;1254;49.144;8.212;2023-04-03T04:56:13;4.10;;;2.90;;
2486;SDS011;1254;49.144;8.212;2023-04-03T04:58:42;3.20;;;2.90;;
2486;SDS011;1254;49.144;8.212;2023-04-03T05:01:10;4.57;;;3.00;;
2486;SDS011;1254;49.144;8.212;2023-04-03T05:03:57;4.00;;;3.63;;
2486;SDS011;1254;49.144;8.212;2023-04-03T05:06:26;3.53;;;2.95;;
2486;SDS011;1254;49.144;8.212;2023-04-03T05:08:58;3.25;;;2.95;;
2486;SDS011;1254;49.144;8.212;2023-04-03T05:11:26;3.30;;;3.00;;
2486;SDS011;1254;49.144;8.212;2023-04-03T05:13:55;3.30;;;2.88;;
2486;SDS011;1254;49.144;8.212;2023-04-03T05:16:25;5.75;;;3.33;;
2486;SDS011;1254;49.144;8.212;2023-04-03T05:18:54;5.35;;;2.88;;
2486;SDS011;1254;49.144;8.212;2023-04-03T05:21:23;3.25;;;2.90;;
2486;SDS011;1254;49.144;8.212;2023-04-03T05:23:52;2.85;;;2.65;;
2486;SDS011;1254;49.144;8.212;2023-04-03T05:26:22;4.75;;;3.40;;
2486;SDS011;1254;49.144;8.212;2023-04-03T05:28:53;3.97;;;3.50;;
2486;SDS011;1254;49.144;8.212;2023-04-03T05:31:21;2.75;;;2.55;;
2486;SDS011;1254;49.144;8.212;2023-04-03T05:33:49;4.22;;;3.30;;
2486;SDS011;1254;49.144;8.212;2023-04-03T05:36:18;2.97;;;2.70;;
2486;SDS011;1254;49.144;8.212;2023-04-03T05:38:50;3.90;;;3.60;;
2486;SDS011;1254;49.144;8.212;2023-04-03T05:41:19;4.72;;;3.25;;
2486;SDS011;1254;49.144;8.212;2023-04-03T05:43:49;4.30;;;2.65;;
2486;SDS011;1254;49.144;8.212;2023-04-03T05:46:19;2.83;;;2.53;;
2486;SDS011;1254;49.144;8.212;2023-04-03T05:48:52;8.52;;;3.20;;
2486;SDS011;1254;49.144;8.212;2023-04-03T05:51:23;3.30;;;3.00;;
2486;SDS011;1254;49.144;8.212;2023-04-03T05:53:56;4.22;;;3.28;;
2486;SDS011;1254;49.144;8.212;2023-04-03T05:56:28;5.43;;;3.40;;
2486;SDS011;1254;49.144;8.212;2023-04-03T05:58:58;6.53;;;3.92;;
2486;SDS011;1254;49.144;8.212;2023-04-03T06:01:27;6.32;;;3.03;;
2486;SDS011;1254;49.144;8.212;2023-04-03T06:03:55;4.90;;;3.25;;
2486;SDS011;1254;49.144;8.212;2023-04-03T06:06:25;3.58;;;3.28;;
2486;SDS011;1254;49.144;8.212;2023-04-03T06:08:53;6.93;;;3.15;;
2486;SDS011;1254;49.144;8.212;2023-04-03T06:11:21;3.45;;;3.00;;
2486;SDS011;1254;49.144;8.212;2023-04-03T06:13:49;6.35;;;3.22;;
2486;SDS011;1254;49.144;8.212;2023-04-03T06:16:19;3.00;;;2.75;;
2486;SDS011;1254;49.144;8.212;2023-04-03T06:18:48;3.40;;;3.00;;
2486;SDS011;1254;49.144;8.212;2023-04-03T06:21:16;3.40;;;2.63;;
2486;SDS011;1254;49.144;8.212;2023-04-03T06:23:44;6.13;;;3.28;;
2486;SDS011;1254;49.144;8.212;2023-04-03T06:26:13;3.47;;;3.28;;
2486;SDS011;1254;49.144;8.212;2023-04-03T06:28:41;3.20;;;2.90;;
2486;SDS011;1254;49.144;8.212;2023-04-03T06:31:09;3.95;;;3.65;;
2486;SDS011;1254;49.144;8.212;2023-04-03T06:33:39;4.63;;;4.30;;
2486;SDS011;1254;49.144;8.212;2023-04-03T06:36:09;3.80;;;2.83;;
2486;SDS011;1254;49.144;8.212;2023-04-03T06:38:38;4.05;;;3.75;;
2486;SDS011;1254;49.144;8.212;2023-04-03T06:41:06;3.80;;;3.45;;
2486;SDS011;1254;49.144;8.212;2023-04-03T06:43:34;3.50;;;3.20;;
2486;SDS011;1254;49.144;8.212;2023-04-03T06:46:03;3.47;;;3.05;;
2486;SDS011;1254;49.144;8.212;2023-04-03T06:48:31;10.00;;;3.83;;
2486;SDS011;1254;49.144;8.212;2023-04-03T06:51:00;6.20;;;3.47;;
2486;SDS011;1254;49.144;8.212;2023-04-03T06:53:28;3.38;;;3.10;;
2486;SDS011;1254;49.144;8.212;2023-04-03T06:55:57;5.10;;;3.15;;
2486;SDS011;1254;49.144;8.212;2023-04-03T06:58:25;3.30;;;3.00;;
2486;SDS011;1254;49.144;8.212;2023-04-03T07:00:53;3.28;;;3.05;;
2486;SDS011;1254;49.144;8.212;2023-04-03T07:03:22;3.53;;;3.33;;
2486;SDS011;1254;49.144;8.212;2023-04-03T07:05:50;5.72;;;3.22;;
2486;SDS011;1254;49.144;8.212;2023-04-03T07:08:19;4.45;;;3.72;;
2486;SDS011;1254;49.144;8.212;2023-04-03T07:10:49;4.05;;;3.65;;
2486;SDS011;1254;49.144;8.212;2023-04-03T07:13:17;3.55;;;3.22;;
2486;SDS011;1254;49.144;8.212;2023-04-03T07:15:45;4.18;;;3.30;;
2486;SDS011;1254;49.144;8.212;2023-04-03T07:18:14;2.95;;;2.75;;
2486;SDS011;1254;49.144;8.212;2023-04-03T07:20:42;3.97;;;3.67;;
2486;SDS011;1254;49.144;8.212;2023-04-03T07:23:11;3.63;;;3.38;;
2486;SDS011;1254;49.144;8.212;2023-04-03T07:25:43;6.78;;;3.95;;
2486;SDS011;1254;49.144;8.212;2023-04-03T07:28:12;3.95;;;3.65;;
2486;SDS011;1254;49.144;8.212;2023-04-03T07:30:43;4.53;;;4.10;;
2486;SDS011;1254;49.144;8.212;2023-04-03T07:33:12;5.32;;;4.38;;
2486;SDS011;1254;49.144;8.212;2023-04-03T07:35:41;6.53;;;4.70;;
2486;SDS011;1254;49.144;8.212;2023-04-03T07:38:10;4.95;;;4.30;;
2486;SDS011;1254;49.144;8.212;2023-04-03T07:40:38;4.50;;;4.10;;
2486;SDS011;1254;49.144;8.212;2023-04-03T07:43:08;5.78;;;4.05;;
2486;SDS011;1254;49.144;8.212;2023-04-03T07:45:36;4.60;;;3.95;;
2486;SDS011;1254;49.144;8.212;2023-04-03T07:48:05;3.80;;;3.55;;
2486;SDS011;1254;49.144;8.212;2023-04-03T07:50:33;4.22;;;3.83;;
2486;SDS011;1254;49.144;8.212;2023-04-03T07:53:02;5.07;;;4.20;;
2486;SDS011;1254;49.144;8.212;2023-04-03T07:55:31;5.50;;;4.05;;
2486;SDS011;1254;49.144;8.212;2023-04-03T07:58:00;7.15;;;3.95;;
2486;SDS011;1254;49.144;8.212;2023-04-03T08:00:29;8.02;;;5.13;;
2486;SDS011;1254;49.144;8.212;2023-04-03T08:02:58;6.15;;;4.60;;
2486;SDS011;1254;49.144;8.212;2023-04-03T08:05:26;4.55;;;4.22;;
2486;SDS011;1254;49.144;8.212;2023-04-03T08:07:54;5.03;;;4.50;;
2486;SDS011;1254;49.144;8.212;2023-04-03T08:10:22;4.72;;;4.15;;
2486;SDS011;1254;49.144;8.212;2023-04-03T08:12:51;5.03;;;4.63;;
2486;SDS011;1254;49.144;8.212;2023-04-03T08:15:19;10.02;;;5.10;;
2486;SDS011;1254;49.144;8.212;2023-04-03T08:17:49;12.95;;;4.60;;
2486;SDS011;1254;49.144;8.212;2023-04-03T08:20:17;5.30;;;4.20;;
2486;SDS011;1254;49.144;8.212;2023-04-03T08:22:46;6.15;;;5.30;;
2486;SDS011;1254;49.144;8.212;2023-04-03T08:25:14;5.50;;;5.15;;
2486;SDS011;1254;49.144;8.212;2023-04-03T08:27:43;5.45;;;4.95;;
2486;SDS011;1254;49.144;8.212;2023-04-03T08:30:13;5.18;;;4.78;;
2486;SDS011;1254;49.144;8.212;2023-04-03T08:32:42;5.53;;;5.20;;
2486;SDS011;1254;49.144;8.212;2023-04-03T08:35:11;6.78;;;5.47;;
2486;SDS011;1254;49.144;8.212;2023-04-03T08:37:40;6.72;;;5.75;;
2486;SDS011;1254;49.144;8.212;2023-04-03T08:40:12;4.97;;;4.57;;
2486;SDS011;1254;49.144;8.212;2023-04-03T08:42:44;5.80;;;5.40;;
2486;SDS011;1254;49.144;8.212;2023-04-03T08:45:15;8.27;;;5.60;;
2486;SDS011;1254;49.144;8.212;2023-04-03T08:47:46;5.95;;;5.20;;
2486;SDS011;1254;49.144;8.212;2023-04-03T08:50:18;5.63;;;5.32;;
2486;SDS011;1254;49.144;8.212;2023-04-03T08:52:50;8.50;;;6.13;;
2486;SDS011;1254;49.144;8.212;2023-04-03T08:55:22;6.07;;;5.57;;
2486;SDS011;1254;49.144;8.212;2023-04-03T08:57:53;6.70;;;6.40;;
2486;SDS011;1254;49.144;8.212;2023-04-03T09:00:26;7.13;;;6.82;;
2486;SDS011;1254;49.144;8.212;2023-04-03T09:02:56;10.90;;;7.18;;
2486;SDS011;1254;49.144;8.212;2023-04-03T09:05:29;8.57;;;6.93;;
2486;SDS011;1254;49.144;8.212;2023-04-03T09:08:03;8.50;;;8.00;;
2486;SDS011;1254;49.144;8.212;2023-04-03T09:10:33;8.23;;;7.72;;
2486;SDS011;1254;49.144;8.212;2023-04-03T09:13:03;7.78;;;7.47;;
2486;SDS011;1254;49.144;8.212;2023-04-03T09:15:34;9.20;;;8.50;;
2486;SDS011;1254;49.144;8.212;2023-04-03T09:18:03;8.70;;;8.00;;
2486;SDS011;1254;49.144;8.212;2023-04-03T09:20:38;8.88;;;8.45;;
2486;SDS011;1254;49.144;8.212;2023-04-03T09:23:18;9.52;;;9.13;;
2486;SDS011;1254;49.144;8.212;2023-04-03T09:25:48;9.30;;;8.90;;
2486;SDS011;1254;49.144;8.212;2023-04-03T09:28:17;9.82;;;9.27;;
2486;SDS011;1254;49.144;8.212;2023-04-03T09:30:46;9.30;;;8.75;;
2486;SDS011;1254;49.144;8.212;2023-04-03T09:33:14;9.07;;;8.50;;
2486;SDS011;1254;49.144;8.212;2023-04-03T09:35:44;10.32;;;9.60;;
2486;SDS011;1254;49.144;8.212;2023-04-03T09:38:17;11.07;;;10.10;;
2486;SDS011;1254;49.144;8.212;2023-04-03T09:40:47;9.27;;;8.70;;
2486;SDS011;1254;49.144;8.212;2023-04-03T09:43:19;8.70;;;8.38;;
2486;SDS011;1254;49.144;8.212;2023-04-03T09:45:49;8.98;;;8.57;;
2486;SDS011;1254;49.144;8.212;2023-04-03T09:48:18;10.00;;;9.60;;
2486;SDS011;1254;49.144;8.212;2023-04-03T09:50:58;9.70;;;8.93;;
2486;SDS011;1254;49.144;8.212;2023-04-03T09:53:28;10.07;;;9.43;;
2486;SDS011;1254;49.144;8.212;2023-04-03T09:55:57;9.30;;;8.70;;
2486;SDS011;1254;49.144;8.212;2023-04-03T09:58:27;10.05;;;9.55;;
2486;SDS011;1254;49.144;8.212;2023-04-03T10:00:57;9.32;;;8.80;;
2486;SDS011;1254;49.144;8.212;2023-04-03T10:03:28;10.07;;;9.30;;
2486;SDS011;1254;49.144;8.212;2023-04-03T10:05:58;9.52;;;9.13;;
2486;SDS011;1254;49.144;8.212;2023-04-03T10:08:28;10.27;;;9.77;;
2486;SDS011;1254;49.144;8.212;2023-04-03T10:11:10;9.50;;;9.10;;
2486;SDS011;1254;49.144;8.212;2023-04-03T10:13:52;10.10;;;9.50;;
2486;SDS011;1254;49.144;8.212;2023-04-03T10:16:23;16.17;;;9.20;;
2486;SDS011;1254;49.144;8.212;2023-04-03T10:18:56;10.73;;;10.13;;
2486;SDS011;1254;49.144;8.212;2023-04-03T10:21:32;11.10;;;10.40;;
2486;SDS011;1254;49.144;8.212;2023-04-03T10:24:04;11.20;;;10.40;;
2486;SDS011;1254;49.144;8.212;2023-04-03T10:26:37;9.55;;;9.05;;
2486;SDS011;1254;49.144;8.212;2023-04-03T10:29:09;10.77;;;10.00;;
2486;SDS011;1254;49.144;8.212;2023-04-03T10:31:43;11.38;;;10.48;;
2486;SDS011;1254;49.144;8.212;2023-04-03T10:34:16;10.45;;;9.95;;
2486;SDS011;1254;49.144;8.212;2023-04-03T10:36:49;10.18;;;9.60;;
2486;SDS011;1254;49.144;8.212;2023-04-03T10:39:20;10.93;;;10.23;;
2486;SDS011;1254;49.144;8.212;2023-04-03T10:41:56;10.10;;;9.50;;
2486;SDS011;1254;49.144;8.212;2023-04-03T10:44:29;10.93;;;10.32;;
2486;SDS011;1254;49.144;8.212;2023-04-03T10:47:00;11.50;;;10.90;;
2486;SDS011;1254;49.144;8.212;2023-04-03T10:49:33;10.38;;;9.88;;
2486;SDS011;1254;49.144;8.212;2023-04-03T10:52:09;13.45;;;10.38;;
2486;SDS011;1254;49.144;8.212;2023-04-03T10:54:41;10.82;;;10.27;;
2486;SDS011;1254;49.144;8.212;2023-04-03T10:57:11;10.40;;;9.90;;
2486;SDS011;1254;49.144;8.212;2023-04-03T10:59:41;10.75;;;9.80;;
2486;SDS011;1254;49.144;8.212;2023-04-03T11:02:13;11.48;;;10.60;;
2486;SDS011;1254;49.144;8.212;2023-04-03T11:04:45;10.25;;;9.65;;
2486;SDS011;1254;49.144;8.212;2023-04-03T11:07:17;11.13;;;10.60;;
2486;SDS011;1254;49.144;8.212;2023-04-03T11:09:48;10.75;;;9.95;;
2486;SDS011;1254;49.144;8.212;2023-04-03T11:12:18;10.82;;;10.32;;
2486;SDS011;1254;49.144;8.212;2023-04-03T11:14:48;9.85;;;9.45;;
2486;SDS011;1254;49.144;8.212;2023-04-03T11:17:23;10.40;;;9.95;;
2486;SDS011;1254;49.144;8.212;2023-04-03T11:19:58;10.30;;;9.70;;
2486;SDS011;1254;49.144;8.212;2023-04-03T11:22:30;11.10;;;10.30;;
2486;SDS011;1254;49.144;8.212;2023-04-03T11:25:03;10.50;;;10.10;;
2486;SDS011;1254;49.144;8.212;2023-04-03T11:27:33;11.25;;;10.63;;
2486;SDS011;1254;49.144;8.212;2023-04-03T11:30:05;12.05;;;11.45;;
2486;SDS011;1254;49.144;8.212;2023-04-03T11:35:17;10.30;;;9.80;;
2486;SDS011;1254;49.144;8.212;2023-04-03T11:37:48;10.98;;;10.30;;
2486;SDS011;1254;49.144;8.212;2023-04-03T11:40:22;10.13;;;9.63;;
2486;SDS011;1254;49.144;8.212;2023-04-03T11:42:52;10.68;;;10.07;;
2486;SDS011;1254;49.144;8.212;2023-04-03T11:45:26;10.05;;;9.65;;
2486;SDS011;1254;49.144;8.212;2023-04-03T11:47:57;11.85;;;11.25;;
2486;SDS011;1254;49.144;8.212;2023-04-03T11:50:40;10.90;;;9.85;;
2486;SDS011;1254;49.144;8.212;2023-04-03T11:53:28;11.50;;;10.70;;
2486;SDS011;1254;49.144;8.212;2023-04-03T11:55:57;11.45;;;10.75;;
2486;SDS011;1254;49.144;8.212;2023-04-03T11:58:27;10.40;;;9.80;;
2486;SDS011;1254;49.144;8.212;2023-04-03T12:01:06;11.40;;;10.80;;
2486;SDS011;1254;49.144;8.212;2023-04-03T12:09:26;11.65;;;11.15;;
2486;SDS011;1254;49.144;8.212;2023-04-03T12:11:57;11.88;;;11.07;;
2486;SDS011;1254;49.144;8.212;2023-04-03T12:14:27;11.95;;;11.40;;
2486;SDS011;1254;49.144;8.212;2023-04-03T12:16:56;10.50;;;10.10;;
2486;SDS011;1254;49.144;8.212;2023-04-03T12:19:33;10.52;;;9.90;;
2486;SDS011;1254;49.144;8.212;2023-04-03T12:22:14;11.43;;;10.65;;
2486;SDS011;1254;49.144;8.212;2023-04-03T12:24:47;11.65;;;10.95;;
2486;SDS011;1254;49.144;8.212;2023-04-03T12:27:23;10.38;;;9.98;;
2486;SDS011;1254;49.144;8.212;2023-04-03T12:30:04;11.48;;;11.07;;
2486;SDS011;1254;49.144;8.212;2023-04-03T12:32:42;11.60;;;11.00;;
2486;SDS011;1254;49.144;8.212;2023-04-03T12:35:15;10.93;;;10.48;;
2486;SDS011;1254;49.144;8.212;2023-04-03T12:40:35;11.55;;;11.05;;
2486;SDS011;1254;49.144;8.212;2023-04-03T12:43:11;12.07;;;11.57;;
2486;SDS011;1254;49.144;8.212;2023-04-03T12:45:46;11.25;;;10.63;;
2486;SDS011;1254;49.144;8.212;2023-04-03T12:48:15;11.63;;;10.95;;
2486;SDS011;1254;49.144;8.212;2023-04-03T12:50:46;12.40;;;11.80;;
2486;SDS011;1254;49.144;8.212;2023-04-03T12:53:16;12.45;;;11.70;;
2486;SDS011;1254;49.144;8.212;2023-04-03T12:55:47;11.73;;;11.07;;
2486;SDS011;1254;49.144;8.212;2023-04-03T12:58:16;10.73;;;10.33;;
2486;SDS011;1254;49.144;8.212;2023-04-03T13:00:45;11.20;;;10.70;;
2486;SDS011;1254;49.144;8.212;2023-04-03T13:03:20;12.00;;;11.30;;
2486;SDS011;1254;49.144;8.212;2023-04-03T13:05:49;11.97;;;11.20;;
2486;SDS011;1254;49.144;8.212;2023-04-03T13:08:18;12.53;;;11.73;;
2486;SDS011;1254;49.144;8.212;2023-04-03T13:10:49;13.30;;;12.30;;
2486;SDS011;1254;49.144;8.212;2023-04-03T13:13:18;12.60;;;12.00;;
2486;SDS011;1254;49.144;8.212;2023-04-03T13:15:49;12.70;;;11.43;;
2486;SDS011;1254;49.144;8.212;2023-04-03T13:18:26;11.13;;;10.50;;
2486;SDS011;1254;49.144;8.212;2023-04-03T13:20:56;11.77;;;11.27;;
2486;SDS011;1254;49.144;8.212;2023-04-03T13:23:24;12.52;;;11.82;;
2486;SDS011;1254;49.144;8.212;2023-04-03T13:25:54;12.20;;;11.52;;
2486;SDS011;1254;49.144;8.212;2023-04-03T13:28:27;11.90;;;11.40;;
2486;SDS011;1254;49.144;8.212;2023-04-03T13:30:56;11.73;;;11.10;;
2486;SDS011;1254;49.144;8.212;2023-04-03T13:33:28;11.60;;;11.10;;
2486;SDS011;1254;49.144;8.212;2023-04-03T13:36:00;11.67;;;11.13;;
2486;SDS011;1254;49.144;8.212;2023-04-03T13:38:31;11.70;;;11.10;;
2486;SDS011;1254;49.144;8.212;2023-04-03T13:41:03;11.35;;;10.68;;
2486;SDS011;1254;49.144;8.212;2023-04-03T13:43:32;10.73;;;10.23;;
2486;SDS011;1254;49.144;8.212;2023-04-03T13:46:02;11.70;;;11.20;;
2486;SDS011;1254;49.144;8.212;2023-04-03T13:48:36;12.18;;;11.60;;
2486;SDS011;1254;49.144;8.212;2023-04-03T13:51:13;12.38;;;11.60;;
2486;SDS011;1254;49.144;8.212;2023-04-03T13:53:45;11.82;;;11.23;;
2486;SDS011;1254;49.144;8.212;2023-04-03T13:56:18;12.15;;;11.45;;
2486;SDS011;1254;49.144;8.212;2023-04-03T13:58:55;11.90;;;11.00;;
2486;SDS011;1254;49.144;8.212;2023-04-03T14:01:24;11.55;;;10.93;;
2486;SDS011;1254;49.144;8.212;2023-04-03T14:03:54;11.90;;;11.20;;
2486;SDS011;1254;49.144;8.212;2023-04-03T14:06:22;11.82;;;11.07;;
2486;SDS011;1254;49.144;8.212;2023-04-03T14:08:51;11.82;;;11.07;;
2486;SDS011;1254;49.144;8.212;2023-04-03T14:11:22;11.55;;;10.95;;
2486;SDS011;1254;49.144;8.212;2023-04-03T14:13:50;11.23;;;10.60;;
2486;SDS011;1254;49.144;8.212;2023-04-03T14:16:19;10.40;;;10.00;;
2486;SDS011;1254;49.144;8.212;2023-04-03T14:18:48;11.25;;;10.57;;
2486;SDS011;1254;49.144;8.212;2023-04-03T14:21:17;11.32;;;10.63;;
2486;SDS011;1254;49.144;8.212;2023-04-03T14:23:46;10.77;;;10.23;;
2486;SDS011;1254;49.144;8.212;2023-04-03T14:26:15;11.07;;;10.38;;
2486;SDS011;1254;49.144;8.212;2023-04-03T14:28:47;10.27;;;9.65;;
2486;SDS011;1254;49.144;8.212;2023-04-03T14:31:15;10.60;;;9.80;;
2486;SDS011;1254;49.144;8.212;2023-04-03T14:33:44;10.57;;;10.18;;
2486;SDS011;1254;49.144;8.212;2023-04-03T14:36:13;10.88;;;10.35;;
2486;SDS011;1254;49.144;8.212;2023-04-03T14:38:42;10.70;;;10.07;;
2486;SDS011;1254;49.144;8.212;2023-04-03T14:41:11;11.05;;;10.45;;
2486;SDS011;1254;49.144;8.212;2023-04-03T14:43:40;11.47;;;10.97;;
2486;SDS011;1254;49.144;8.212;2023-04-03T14:46:12;10.50;;;10.10;;
2486;SDS011;1254;49.144;8.212;2023-04-03T14:48:41;11.30;;;10.60;;
2486;SDS011;1254;49.144;8.212;2023-04-03T14:51:10;11.33;;;10.63;;
2486;SDS011;1254;49.144;8.212;2023-04-03T14:53:39;10.77;;;10.27;;
2486;SDS011;1254;49.144;8.212;2023-04-03T14:56:11;11.60;;;11.00;;
2486;SDS011;1254;49.144;8.212;2023-04-03T14:58:40;10.70;;;10.10;;
2486;SDS011;1254;49.144;8.212;2023-04-03T15:01:09;11.10;;;10.50;;
2486;SDS011;1254;49.144;8.212;2023-04-03T15:03:39;11.88;;;11.02;;
2486;SDS011;1254;49.144;8.212;2023-04-03T15:06:08;11.30;;;10.80;;
2486;SDS011;1254;49.144;8.212;2023-04-03T15:08:37;10.40;;;9.90;;
2486;SDS011;1254;49.144;8.212;2023-04-03T15:11:07;11.68;;;10.88;;
2486;SDS011;1254;49.144;8.212;2023-04-03T15:13:36;11.43;;;10.70;;
2486;SDS011;1254;49.144;8.212;2023-04-03T15:16:04;12.60;;;11.80;;
2486;SDS011;1254;49.144;8.212;2023-04-03T15:18:33;12.17;;;11.47;;
2486;SDS011;1254;49.144;8.212;2023-04-03T15:21:05;11.80;;;11.20;;
2486;SDS011;1254;49.144;8.212;2023-04-03T15:23:33;12.20;;;11.60;;
2486;SDS011;1254;49.144;8.212;2023-04-03T15:26:01;12.67;;;11.90;;
2486;SDS011;1254;49.144;8.212;2023-04-03T15:28:31;11.40;;;10.90;;
2486;SDS011;1254;49.144;8.212;2023-04-03T15:31:01;12.20;;;11.60;;
2486;SDS011;1254;49.144;8.212;2023-04-03T15:33:30;12.17;;;11.67;;
2486;SDS011;1254;49.144;8.212;2023-04-03T15:35:58;12.13;;;11.10;;
2486;SDS011;1254;49.144;8.212;2023-04-03T15:38:28;11.77;;;11.27;;